Yellowstone Regional Airport
KCOD : now visible

Airfield :











YOU CAN JOIN US ON...

 
LOGIN :

Register | Disclaimer

   EN    FR    IT 

 









Legend :    VFR   Marginal VFR   IFR   Intensive IFR   Very Intensive IFR
Visi :
Ceiling :
>= 8 km
>= 3000ft
5 to 8 km
1000 to 3000 ft
1500m to 5 km
500 to 1000 ft
800 to 1500m
200 to 500 ft
< 800m
< 200 ft
Symbols :   Thunderstorms  Fog  Heavy snow  Heavy precipitations  Wind > 20 kt






- Airport Elevation : 5102 ft


KCOD - Yellowstone Regional

CURRENT METAR :
  • 202121Z AUTO 34008KT 10SM SCT024 OVC032 13/09 A3018 RMK AO2

EXPIRED METARs :
  • 202056Z AUTO 34014KT 10SM SCT022 OVC029 13/09 A3017 RMK AO2 LTG DSNT SW RAE1958 SLP195 P0000 6//// T01330089 51024
  • 201956Z AUTO 36009KT 10SM -RA FEW011 BKN023 OVC060 12/10 A3016 RMK AO2 TSB32E47 SLP191 T01170100
  • 201951Z AUTO 01013G17KT 10SM -RA FEW011 BKN023 OVC060 12/10 A3015 RMK AO2 LTG DSNT SW TSB32E47
  • 201856Z AUTO 36013G19KT 10SM -RA SCT026 BKN032 OVC065 13/09 A3012 RMK AO2 RAB39 SLP174 P0000 T01330094

TAF KCOD
Valid from the 20 at 21:00 until the 21 at 18:00 UTC


202047Z 2021/2118 35013G23KT P6SM -SHRA BKN025 OVC060
FM202300 35012G20KT P6SM VCSH BKN060
FM210300 27007KT P6SM SCT070
KZLC FIR / North America



MET'MAP, your aeronautical weather chart ! - Copyright ORBIFLY December 2007 - Disclaimer

ORBIFLY MET'MAP TEAM :

Programming & Development : Alexandra Zaïnal
Concept & original design : Baudouin d'Aumeries
Assistance for programming : Marc-Olivier Méhu
Technical & hardware support : Manuel Goepfert

Contact : metmap@orbifly.com




SOURCES & CREDITS :

   NOAA       Earth
Advisory